CheckWX is a tool to help pilots better visualize weather data.  It is not intended as a substitute for an official pre-flight weather briefing.

12:04:54 UTC

KCWA METAR
Central Wisconsin Airport
Mosinee, Wisconsin, USA
Current

18 mins ago

KCWA 251147Z 01004KT 10SM SKC M07/M16 A3035
Observed
Mar-25 @ 11:47 UTC
Wind
  • 010° at 4 KTS
Visibility
10 SM
Flight Rules
VFR
Cloud Levels
  • Clear skies
Temperature
-7°C / 19°F
Dewpoint
-16°C / 3°F
Humidity
49%
Altimeter
30.35" Hg
Pressure
1027.82 hPa
Previous

1 hour ago

KCWA 251050Z 00000KT 10SM SKC M06/M17 A3034
Observed
Mar-25 @ 10:50 UTC
Visibility
10 SM
Flight Rules
VFR
Cloud Levels
  • Clear skies
Temperature
-6°C / 21°F
Dewpoint
-17°C / 1°F
Humidity
42%
Altimeter
30.34" Hg
Pressure
1027.42 hPa
Previous

1 hour ago

KCWA 251035Z AUTO 01003KT 10SM CLR M06/M16 A3034 RMK AO2
Observed
Mar-25 @ 10:35 UTC
Wind
  • 010° at 3 KTS
Visibility
10 SM
Flight Rules
VFR
Cloud Levels
  • Clear skies
Temperature
-6°C / 21°F
Dewpoint
-16°C / 3°F
Humidity
45%
Altimeter
30.34" Hg
Pressure
1027.42 hPa